createdAt,value
2022-12-31T00:01:23.696Z,19.50
2022-12-31T00:03:50.636Z,13.32
2022-12-31T00:06:34.303Z,16.15
2022-12-31T00:09:04.911Z,22.45
2022-12-31T00:11:32.474Z,24.40
2022-12-31T00:13:59.669Z,13.23
2022-12-31T00:16:29.704Z,10.38
2022-12-31T00:19:01.022Z,17.92
2022-12-31T00:21:29.781Z,22.40
2022-12-31T00:23:56.694Z,18.30
2022-12-31T00:26:26.025Z,12.25
2022-12-31T00:28:54.654Z,17.20
2022-12-31T00:31:26.796Z,16.13
2022-12-31T00:33:53.496Z,19.40
2022-12-31T00:36:22.681Z,12.48
2022-12-31T00:38:51.052Z,16.13
2022-12-31T00:41:19.652Z,17.67
2022-12-31T00:43:46.606Z,12.60
2022-12-31T00:46:13.825Z,17.23
2022-12-31T00:48:40.841Z,15.00
2022-12-31T00:51:10.305Z,16.90
2022-12-31T00:53:37.896Z,22.33
2022-12-31T00:56:16.635Z,13.40
2022-12-31T00:58:43.920Z,18.30
2022-12-31T01:01:23.404Z,15.65
2022-12-31T01:03:53.183Z,16.77
2022-12-31T01:06:19.858Z,14.48
2022-12-31T01:08:49.084Z,15.98
2022-12-31T01:11:19.028Z,18.35
2022-12-31T01:13:47.567Z,17.05
2022-12-31T01:16:14.600Z,16.48
2022-12-31T01:18:41.620Z,14.48
2022-12-31T01:21:09.800Z,16.25
2022-12-31T01:23:36.378Z,12.30
2022-12-31T01:26:04.749Z,12.75
2022-12-31T01:28:31.452Z,13.18
2022-12-31T01:30:58.784Z,18.30
2022-12-31T01:33:25.371Z,17.65
2022-12-31T01:35:51.826Z,15.52
2022-12-31T01:38:18.246Z,13.80
2022-12-31T01:40:44.648Z,13.10
2022-12-31T01:43:21.041Z,11.30
2022-12-31T01:45:51.840Z,15.52
2022-12-31T01:48:25.362Z,11.75
2022-12-31T01:50:53.618Z,18.98
2022-12-31T01:53:20.625Z,13.40
2022-12-31T01:55:49.486Z,10.07
2022-12-31T01:58:19.579Z,10.10
2022-12-31T02:00:47.298Z,16.42
2022-12-31T02:03:14.392Z,12.82
2022-12-31T02:05:45.769Z,16.92
2022-12-31T02:08:12.457Z,15.98
2022-12-31T02:10:38.938Z,13.40
2022-12-31T02:13:05.885Z,13.05
2022-12-31T02:15:41.246Z,13.40
2022-12-31T02:18:22.914Z,16.65
2022-12-31T02:21:20.902Z,16.00
2022-12-31T02:24:16.124Z,12.60
2022-12-31T02:29:38.306Z,9.77
2022-12-31T02:34:44.704Z,11.63
2022-12-31T02:37:13.396Z,6.75
2022-12-31T02:39:43.011Z,12.10
2022-12-31T02:42:10.834Z,13.77
2022-12-31T02:44:40.076Z,16.45
2022-12-31T02:47:06.929Z,14.57
2022-12-31T02:50:04.487Z,8.77
2022-12-31T02:52:39.874Z,12.23
2022-12-31T02:55:14.375Z,10.50
2022-12-31T03:00:35.095Z,14.55
2022-12-31T03:03:03.151Z,9.90
2022-12-31T03:05:33.616Z,15.07
2022-12-31T03:08:00.242Z,6.32
2022-12-31T03:10:26.642Z,14.93
2022-12-31T03:12:53.259Z,11.88
2022-12-31T03:15:21.355Z,14.40
2022-12-31T03:17:47.761Z,16.08
2022-12-31T03:20:32.936Z,8.90
2022-12-31T03:22:59.404Z,7.47
2022-12-31T03:25:35.151Z,6.38
2022-12-31T03:28:04.844Z,5.93
2022-12-31T03:30:32.522Z,6.53
2022-12-31T03:33:00.070Z,8.48
2022-12-31T03:35:28.183Z,16.02
2022-12-31T03:37:54.666Z,8.00
2022-12-31T03:40:22.634Z,17.15
2022-12-31T03:42:49.144Z,10.10
2022-12-31T03:45:16.016Z,15.52
2022-12-31T03:47:42.691Z,9.10
2022-12-31T03:50:11.251Z,7.88
2022-12-31T03:52:38.035Z,10.85
2022-12-31T03:55:05.162Z,7.35
2022-12-31T03:57:31.799Z,14.95
2022-12-31T03:59:58.482Z,10.55
2022-12-31T04:02:28.830Z,10.15
2022-12-31T04:04:55.918Z,13.13
2022-12-31T04:07:22.337Z,10.43
2022-12-31T04:09:48.747Z,11.45
2022-12-31T04:12:15.298Z,13.57
2022-12-31T04:14:41.757Z,9.75
2022-12-31T04:17:08.263Z,8.93
2022-12-31T04:19:34.645Z,14.80
2022-12-31T04:22:01.518Z,15.52
2022-12-31T04:24:27.965Z,12.20
2022-12-31T04:26:54.489Z,16.85
2022-12-31T04:29:20.877Z,11.25
2022-12-31T04:31:47.341Z,13.80
2022-12-31T04:34:13.887Z,11.07
2022-12-31T04:36:40.340Z,8.40
2022-12-31T04:39:06.862Z,9.93
2022-12-31T04:41:33.325Z,13.80
2022-12-31T04:44:00.847Z,13.80
2022-12-31T04:46:30.480Z,12.07
2022-12-31T04:48:57.498Z,17.23
2022-12-31T04:51:25.481Z,10.55
2022-12-31T04:53:52.058Z,12.90
2022-12-31T04:56:19.009Z,10.25
2022-12-31T04:58:45.541Z,10.20
2022-12-31T05:01:13.102Z,11.45
2022-12-31T05:03:40.110Z,11.15
2022-12-31T05:06:12.495Z,13.68
2022-12-31T05:08:38.907Z,15.63
2022-12-31T05:11:05.627Z,7.90
2022-12-31T05:13:33.576Z,8.93
2022-12-31T05:16:01.157Z,10.75
2022-12-31T05:18:28.270Z,9.40
2022-12-31T05:20:54.672Z,4.25
2022-12-31T05:23:21.358Z,8.50
2022-12-31T05:25:48.378Z,9.57
2022-12-31T05:28:15.663Z,4.53
2022-12-31T05:30:42.987Z,4.75
2022-12-31T05:33:10.127Z,6.30
2022-12-31T05:35:36.687Z,4.95
2022-12-31T05:38:03.713Z,3.38
2022-12-31T05:40:30.140Z,5.53
2022-12-31T05:42:56.672Z,6.72
2022-12-31T05:45:30.080Z,2.63
2022-12-31T05:47:57.097Z,1.40
2022-12-31T05:50:23.508Z,3.80
2022-12-31T05:52:50.744Z,3.45
2022-12-31T05:55:17.317Z,2.10
2022-12-31T05:57:43.761Z,5.07
2022-12-31T06:00:10.721Z,0.82
2022-12-31T06:02:37.279Z,4.97
2022-12-31T06:05:04.253Z,1.58
2022-12-31T06:07:30.741Z,0.88
2022-12-31T06:09:57.168Z,2.92
2022-12-31T06:12:23.593Z,4.40
2022-12-31T06:14:50.040Z,4.68
2022-12-31T06:17:16.545Z,2.35
2022-12-31T06:19:42.975Z,6.05
2022-12-31T06:22:09.442Z,4.05
2022-12-31T06:24:35.904Z,4.60
2022-12-31T06:27:02.365Z,4.65
2022-12-31T06:29:28.888Z,3.70
2022-12-31T06:31:55.284Z,1.85
2022-12-31T06:34:21.646Z,1.95
2022-12-31T06:36:48.020Z,3.20
2022-12-31T06:39:14.481Z,3.45
2022-12-31T06:41:40.869Z,1.90
2022-12-31T06:44:07.379Z,2.38
2022-12-31T06:46:33.838Z,1.98
2022-12-31T06:49:00.278Z,4.10
2022-12-31T06:51:26.703Z,1.83
2022-12-31T06:53:53.136Z,3.28
2022-12-31T06:56:31.319Z,2.63
2022-12-31T06:59:00.531Z,3.53
2022-12-31T07:01:51.996Z,3.50
2022-12-31T07:04:56.059Z,3.30
2022-12-31T07:07:31.586Z,0.73
2022-12-31T07:10:31.990Z,2.95
2022-12-31T07:13:10.550Z,2.50
2022-12-31T07:15:45.756Z,0.82
2022-12-31T07:18:20.928Z,0.95
2022-12-31T07:20:47.481Z,2.50
2022-12-31T07:23:14.107Z,2.33
2022-12-31T07:25:49.316Z,3.75
2022-12-31T07:28:44.588Z,2.83
2022-12-31T07:31:41.381Z,6.78
2022-12-31T07:34:25.308Z,5.20
2022-12-31T07:37:04.476Z,8.97
2022-12-31T07:39:52.652Z,6.70
2022-12-31T07:42:52.213Z,7.03
2022-12-31T07:45:32.250Z,7.47
2022-12-31T07:48:02.401Z,13.23
2022-12-31T07:50:29.592Z,9.25
2022-12-31T07:52:56.228Z,4.68
2022-12-31T07:55:22.621Z,6.80
2022-12-31T07:58:03.299Z,13.45
2022-12-31T08:00:31.126Z,7.57
2022-12-31T08:03:28.384Z,15.65
2022-12-31T08:06:15.147Z,7.38
2022-12-31T08:08:58.639Z,8.52
2022-12-31T08:11:35.307Z,11.98
2022-12-31T08:14:02.760Z,13.63
2022-12-31T08:16:30.265Z,6.68
2022-12-31T08:18:56.956Z,19.30
2022-12-31T08:21:36.767Z,15.90
2022-12-31T08:24:19.486Z,12.00
2022-12-31T08:26:54.656Z,8.73
2022-12-31T08:29:35.695Z,17.02
2022-12-31T08:32:22.757Z,15.18
2022-12-31T08:35:02.432Z,6.85
2022-12-31T08:37:56.809Z,14.18
2022-12-31T08:40:38.293Z,12.43
2022-12-31T08:43:13.789Z,11.43
2022-12-31T08:45:51.947Z,16.98
2022-12-31T08:48:40.652Z,10.00
2022-12-31T08:51:14.157Z,12.98
2022-12-31T08:53:41.173Z,7.23
2022-12-31T08:56:18.705Z,14.23
2022-12-31T08:59:22.170Z,7.05
2022-12-31T09:02:07.131Z,14.73
2022-12-31T09:05:04.023Z,15.93
2022-12-31T09:07:45.074Z,18.27
2022-12-31T09:10:28.021Z,12.70
2022-12-31T09:13:25.956Z,18.05
2022-12-31T09:16:18.805Z,19.85
2022-12-31T09:18:45.337Z,29.23
2022-12-31T09:21:14.832Z,17.20
2022-12-31T09:23:41.954Z,15.35
2022-12-31T09:26:23.953Z,32.67
2022-12-31T09:29:14.699Z,26.30
2022-12-31T09:32:31.684Z,35.30
2022-12-31T09:35:11.225Z,21.20
2022-12-31T09:37:49.585Z,24.73
2022-12-31T09:40:30.723Z,21.90
2022-12-31T09:43:23.225Z,18.02
2022-12-31T09:46:16.951Z,23.40
2022-12-31T09:49:01.388Z,24.75
2022-12-31T09:51:32.683Z,19.13
2022-12-31T09:54:32.862Z,27.75
2022-12-31T09:57:05.165Z,20.85
2022-12-31T10:00:15.830Z,26.80
2022-12-31T10:03:07.139Z,21.20
2022-12-31T10:06:03.748Z,30.30
2022-12-31T10:09:02.235Z,29.08
2022-12-31T10:11:48.592Z,17.67
2022-12-31T10:14:49.672Z,23.27
2022-12-31T10:17:25.370Z,18.58
2022-12-31T10:20:24.724Z,17.38
2022-12-31T10:23:18.973Z,22.65
2022-12-31T10:26:19.062Z,20.00
2022-12-31T10:29:06.082Z,19.85
2022-12-31T10:32:01.559Z,21.30
2022-12-31T10:34:42.472Z,15.50
2022-12-31T10:37:18.499Z,22.30
2022-12-31T10:39:58.714Z,19.60
2022-12-31T10:42:56.334Z,14.27
2022-12-31T10:45:41.341Z,16.50
2022-12-31T10:48:34.322Z,15.90
2022-12-31T10:51:29.058Z,13.80
2022-12-31T10:54:12.901Z,15.38
2022-12-31T10:56:39.219Z,19.48
2022-12-31T10:59:42.549Z,22.83
2022-12-31T11:02:32.476Z,12.70
2022-12-31T11:05:17.687Z,21.23
2022-12-31T11:08:02.677Z,17.60
2022-12-31T11:10:45.797Z,17.77
2022-12-31T11:13:37.098Z,17.95
2022-12-31T11:16:22.409Z,20.63
2022-12-31T11:19:04.122Z,16.52
2022-12-31T11:21:50.523Z,18.02
2022-12-31T11:24:55.877Z,16.63
2022-12-31T11:27:32.063Z,14.40
2022-12-31T11:30:04.621Z,16.88
2022-12-31T11:32:50.831Z,21.92
2022-12-31T11:35:36.054Z,22.33
2022-12-31T11:38:17.034Z,15.70
2022-12-31T11:40:54.147Z,13.48
2022-12-31T11:43:26.918Z,17.92
2022-12-31T11:45:59.078Z,22.55
2022-12-31T11:48:32.680Z,21.45
2022-12-31T11:51:14.410Z,20.92
2022-12-31T11:54:02.817Z,22.73
2022-12-31T11:56:37.589Z,17.30
2022-12-31T11:59:14.365Z,23.10
2022-12-31T12:01:48.256Z,19.77
2022-12-31T12:04:14.722Z,28.60
2022-12-31T12:06:42.794Z,22.08
2022-12-31T12:09:19.483Z,17.70
2022-12-31T12:11:45.977Z,17.00
2022-12-31T12:14:29.794Z,22.17
2022-12-31T12:17:04.333Z,16.75
2022-12-31T12:19:33.820Z,20.95
2022-12-31T12:22:13.872Z,24.70
2022-12-31T12:24:51.161Z,25.20
2022-12-31T12:27:23.924Z,19.77
2022-12-31T12:29:50.303Z,15.02
2022-12-31T12:32:19.629Z,21.98
2022-12-31T12:34:49.806Z,16.83
2022-12-31T12:37:32.951Z,11.93
2022-12-31T12:40:04.221Z,17.45
2022-12-31T12:42:31.009Z,15.05
2022-12-31T12:45:02.224Z,19.52
2022-12-31T12:47:28.920Z,15.32
2022-12-31T12:49:55.791Z,17.15
2022-12-31T12:52:34.476Z,14.45
2022-12-31T12:55:00.893Z,13.63
2022-12-31T12:57:38.435Z,15.70
2022-12-31T13:00:16.704Z,12.00
2022-12-31T13:02:57.279Z,7.97
2022-12-31T13:05:56.633Z,15.18
2022-12-31T13:09:01.369Z,10.85
2022-12-31T13:11:54.636Z,7.05
2022-12-31T13:14:26.838Z,7.53
2022-12-31T13:17:00.546Z,9.73
2022-12-31T13:19:53.436Z,13.00
2022-12-31T13:22:25.759Z,13.90
2022-12-31T13:25:04.435Z,9.40
2022-12-31T13:27:37.714Z,8.48
2022-12-31T13:30:14.119Z,12.25
2022-12-31T13:32:44.772Z,6.18
2022-12-31T13:35:44.555Z,11.20
2022-12-31T13:38:39.019Z,10.43
2022-12-31T13:41:13.441Z,7.15
2022-12-31T13:46:38.823Z,6.63
2022-12-31T13:49:15.784Z,5.70
2022-12-31T13:51:48.289Z,5.15
2022-12-31T13:54:36.325Z,6.68
2022-12-31T13:57:10.860Z,6.53
2022-12-31T13:59:45.466Z,8.45
2022-12-31T14:02:46.774Z,8.55
2022-12-31T14:05:26.530Z,11.35
2022-12-31T14:07:59.477Z,13.32
2022-12-31T14:10:44.514Z,14.10
2022-12-31T14:13:49.986Z,11.18
2022-12-31T14:19:00.967Z,14.80
2022-12-31T14:21:35.587Z,20.13
2022-12-31T14:24:45.875Z,19.13
2022-12-31T14:27:23.045Z,16.55
2022-12-31T14:29:55.761Z,15.25
2022-12-31T14:32:27.265Z,12.75
2022-12-31T14:35:06.949Z,18.42
2022-12-31T14:37:47.314Z,23.13
2022-12-31T14:40:42.970Z,19.73
2022-12-31T14:43:27.423Z,30.05
2022-12-31T14:46:10.337Z,20.48
2022-12-31T14:49:02.954Z,23.38
2022-12-31T14:51:30.678Z,19.25
2022-12-31T14:53:58.389Z,16.58
2022-12-31T14:56:44.641Z,18.10
2022-12-31T14:59:27.422Z,18.80
2022-12-31T15:01:55.286Z,20.70
2022-12-31T15:04:43.989Z,31.83
2022-12-31T15:07:19.508Z,22.80
2022-12-31T15:10:07.831Z,19.88
2022-12-31T15:12:56.266Z,22.88
2022-12-31T15:15:43.643Z,26.23
2022-12-31T15:18:28.501Z,32.45
2022-12-31T15:21:17.110Z,21.25
2022-12-31T15:23:44.555Z,24.95
2022-12-31T15:26:23.210Z,18.77
2022-12-31T15:28:59.508Z,33.95
2022-12-31T15:31:26.594Z,32.92
2022-12-31T15:33:56.891Z,21.77
2022-12-31T15:36:26.733Z,25.48
2022-12-31T15:39:05.947Z,24.00
2022-12-31T15:42:02.954Z,30.58
2022-12-31T15:44:55.221Z,30.60
2022-12-31T15:47:42.936Z,21.35
2022-12-31T15:50:19.961Z,21.80
2022-12-31T15:52:52.060Z,37.10
2022-12-31T15:55:33.439Z,27.10
2022-12-31T15:58:22.566Z,19.75
2022-12-31T16:01:15.562Z,25.13
2022-12-31T16:03:49.862Z,18.73
2022-12-31T16:06:16.778Z,23.30
2022-12-31T16:08:49.734Z,19.58
2022-12-31T16:11:17.440Z,20.73
2022-12-31T16:13:50.608Z,30.40
2022-12-31T16:16:31.625Z,20.65
2022-12-31T16:18:59.151Z,33.60
2022-12-31T16:21:29.939Z,77.93
2022-12-31T16:23:58.317Z,27.80
2022-12-31T16:26:31.369Z,26.83
2022-12-31T16:29:01.573Z,19.17
2022-12-31T16:31:30.056Z,20.00
2022-12-31T16:34:07.284Z,20.33
2022-12-31T16:36:33.879Z,19.52
2022-12-31T16:39:27.434Z,18.60
2022-12-31T16:42:09.439Z,14.55
2022-12-31T16:44:36.109Z,23.27
2022-12-31T16:47:03.926Z,15.25
2022-12-31T16:49:33.148Z,26.40
2022-12-31T16:52:05.755Z,23.38
2022-12-31T16:54:40.636Z,17.33
2022-12-31T16:57:10.893Z,20.75
2022-12-31T16:59:45.034Z,20.38
2022-12-31T17:02:26.883Z,20.52
2022-12-31T17:04:56.332Z,18.63
2022-12-31T17:07:38.339Z,70.38
2022-12-31T17:10:07.607Z,45.92
2022-12-31T17:13:01.036Z,60.25
2022-12-31T17:15:49.757Z,16.27
2022-12-31T17:18:22.291Z,36.80
2022-12-31T17:20:51.216Z,33.58
2022-12-31T17:23:31.384Z,32.72
2022-12-31T17:26:08.769Z,34.60
2022-12-31T17:28:55.272Z,29.85
2022-12-31T17:31:27.568Z,26.13
2022-12-31T17:34:04.103Z,28.80
2022-12-31T17:36:30.623Z,25.20
2022-12-31T17:39:15.442Z,23.08
2022-12-31T17:44:17.136Z,27.65
2022-12-31T17:46:44.815Z,27.17
2022-12-31T17:49:12.903Z,21.00
2022-12-31T17:51:44.014Z,18.00
2022-12-31T17:54:15.421Z,13.90
2022-12-31T17:56:42.653Z,18.17
2022-12-31T17:59:15.719Z,18.27
2022-12-31T18:01:42.290Z,20.70
2022-12-31T18:04:14.446Z,18.40
2022-12-31T18:06:41.436Z,21.25
2022-12-31T18:09:07.914Z,14.82
2022-12-31T18:11:35.794Z,14.82
2022-12-31T18:14:02.332Z,14.00
2022-12-31T18:16:29.928Z,12.15
2022-12-31T18:18:58.850Z,14.02
2022-12-31T18:21:32.454Z,15.63
2022-12-31T18:26:26.707Z,14.68
2022-12-31T18:28:53.567Z,13.85
2022-12-31T18:31:23.039Z,15.23
2022-12-31T18:33:51.003Z,12.52
2022-12-31T18:36:19.016Z,14.85
2022-12-31T18:38:45.739Z,8.75
2022-12-31T18:41:23.149Z,11.38
2022-12-31T18:43:50.317Z,11.27
2022-12-31T18:46:19.412Z,10.63
2022-12-31T18:48:45.854Z,12.35
2022-12-31T18:51:18.125Z,16.17
2022-12-31T18:53:45.096Z,9.77
2022-12-31T18:56:15.072Z,13.35
2022-12-31T18:58:42.324Z,13.38
2022-12-31T19:01:29.138Z,12.20
2022-12-31T19:03:57.618Z,9.75
2022-12-31T19:06:24.513Z,16.17
2022-12-31T19:08:51.493Z,11.32
2022-12-31T19:11:18.473Z,14.75
2022-12-31T19:13:45.397Z,9.18
2022-12-31T19:16:13.249Z,12.88
2022-12-31T19:18:41.262Z,11.50
2022-12-31T19:21:15.064Z,28.35
2022-12-31T19:23:41.505Z,10.55
2022-12-31T19:26:13.978Z,13.95
2022-12-31T19:28:40.390Z,10.88
2022-12-31T19:31:06.807Z,12.68
2022-12-31T19:33:33.179Z,11.73
2022-12-31T19:35:59.581Z,11.23
2022-12-31T19:38:26.975Z,12.70
2022-12-31T19:40:53.848Z,15.05
2022-12-31T19:43:22.604Z,9.93
2022-12-31T19:45:50.374Z,9.75
2022-12-31T19:48:19.367Z,10.85
2022-12-31T19:50:48.422Z,9.63
2022-12-31T19:53:20.464Z,7.82
2022-12-31T19:55:47.727Z,16.58
2022-12-31T19:58:18.791Z,17.05
2022-12-31T20:00:53.737Z,21.33
2022-12-31T20:03:32.427Z,21.40
2022-12-31T20:06:07.660Z,17.52
2022-12-31T20:08:35.335Z,31.65
2022-12-31T20:11:13.380Z,25.80
2022-12-31T20:13:41.003Z,34.08
2022-12-31T20:16:13.366Z,20.73
2022-12-31T20:18:41.241Z,18.92
2022-12-31T20:21:13.781Z,12.48
2022-12-31T20:23:40.420Z,17.83
2022-12-31T20:26:06.931Z,14.10
2022-12-31T20:28:33.296Z,15.10
2022-12-31T20:31:08.284Z,18.42
2022-12-31T20:33:34.864Z,39.17
2022-12-31T20:36:03.313Z,20.88
2022-12-31T20:38:29.874Z,17.73
2022-12-31T20:41:15.586Z,15.32
2022-12-31T20:43:42.618Z,14.43
2022-12-31T20:46:16.257Z,18.77
2022-12-31T20:48:44.230Z,18.55
2022-12-31T20:51:11.333Z,19.92
2022-12-31T20:53:38.032Z,18.38
2022-12-31T20:56:09.551Z,16.13
2022-12-31T20:58:36.056Z,22.02
2022-12-31T21:01:05.817Z,13.13
2022-12-31T21:06:18.709Z,15.32
2022-12-31T21:08:45.465Z,21.50
2022-12-31T21:11:31.170Z,15.80
2022-12-31T21:13:59.150Z,23.75
2022-12-31T21:16:26.388Z,18.60
2022-12-31T21:18:52.861Z,13.07
2022-12-31T21:21:19.246Z,18.02
2022-12-31T21:23:45.869Z,17.40
2022-12-31T21:26:12.670Z,11.80
2022-12-31T21:28:39.170Z,15.35
2022-12-31T21:31:07.667Z,15.73
2022-12-31T21:33:34.761Z,11.13
2022-12-31T21:36:04.703Z,12.80
2022-12-31T21:38:31.459Z,14.23
2022-12-31T21:41:04.973Z,19.98
2022-12-31T21:43:31.395Z,14.70
2022-12-31T21:46:06.514Z,15.85
2022-12-31T21:48:33.463Z,11.18
2022-12-31T21:51:09.296Z,13.07
2022-12-31T21:53:37.362Z,13.40
2022-12-31T21:56:11.832Z,10.15
2022-12-31T21:58:46.288Z,14.30
2022-12-31T22:01:35.973Z,10.45
2022-12-31T22:04:03.417Z,15.20
2022-12-31T22:06:30.887Z,13.05
2022-12-31T22:08:57.709Z,14.90
2022-12-31T22:11:26.666Z,10.48
2022-12-31T22:13:53.710Z,7.40
2022-12-31T22:16:21.153Z,13.43
2022-12-31T22:18:48.436Z,12.35
2022-12-31T22:21:20.724Z,13.45
2022-12-31T22:23:49.404Z,14.85
2022-12-31T22:26:17.850Z,12.57
2022-12-31T22:28:45.828Z,12.40
2022-12-31T22:31:22.111Z,12.70
2022-12-31T22:33:48.706Z,8.88
2022-12-31T22:36:17.552Z,10.30
2022-12-31T22:38:44.922Z,10.30
2022-12-31T22:41:17.246Z,18.42
2022-12-31T22:43:48.801Z,10.93
2022-12-31T22:46:18.640Z,10.70
2022-12-31T22:48:45.426Z,11.27
2022-12-31T22:51:13.181Z,9.68
2022-12-31T22:53:41.183Z,8.98
2022-12-31T22:56:08.696Z,7.88
2022-12-31T22:58:35.432Z,8.98
2022-12-31T23:01:08.462Z,11.20
2022-12-31T23:03:35.215Z,12.65
2022-12-31T23:06:01.581Z,36.42
2022-12-31T23:08:27.959Z,94.30
2022-12-31T23:11:00.669Z,40.72
2022-12-31T23:13:51.021Z,82.45
2022-12-31T23:16:37.593Z,45.88
2022-12-31T23:19:23.634Z,43.15
2022-12-31T23:22:08.449Z,35.95
2022-12-31T23:27:01.275Z,27.30
2022-12-31T23:29:27.745Z,29.13
2022-12-31T23:31:54.336Z,31.33
2022-12-31T23:34:21.001Z,38.85
2022-12-31T23:36:47.434Z,30.20
2022-12-31T23:39:13.947Z,23.45
2022-12-31T23:41:40.566Z,20.52
2022-12-31T23:44:07.151Z,25.17
2022-12-31T23:46:33.585Z,24.73
2022-12-31T23:49:00.058Z,24.48
2022-12-31T23:51:26.628Z,23.45
2022-12-31T23:53:52.997Z,18.02
2022-12-31T23:56:23.753Z,19.10
2022-12-31T23:58:58.284Z,16.40
